Time;durP1;ratioP1;P1;durP2;ratioP2;P2;SDS_P1;SDS_P2;PMS_P1;PMS_P2;Temp;Humidity;BMP_temperature;BMP_pressure;BME280_temperature;BME280_humidity;BME280_pressure;Samples;Min_cycle;Max_cycle;Signal;HPM_P1;HPM_P2
2023/09/03 00:00:54;;;;;;;0.90;0.60;;;;;;;21.69;60.66;95670.22;5072114;28;20499;-57
2023/09/03 00:03:22;;;;;;;1.60;0.43;;;;;;;22.21;61.51;95798.28;5072037;28;20490;-57
2023/09/03 00:05:53;;;;;;;0.83;0.70;;;;;;;22.16;61.32;95795.78;5072402;28;20507;-57
2023/09/03 00:08:23;;;;;;;0.70;0.43;;;;;;;21.90;60.93;95749.28;5072432;28;20441;-57
2023/09/03 00:10:52;;;;;;;1.60;0.40;;;;;;;22.54;61.46;95809.84;5071597;28;20433;-58
2023/09/03 00:13:21;;;;;;;0.40;0.30;;;;;;;22.86;60.75;95812.91;5072102;28;20517;-57
2023/09/03 00:15:49;;;;;;;0.77;0.77;;;;;;;22.79;59.64;95813.47;5071963;28;20466;-57
2023/09/03 00:18:19;;;;;;;0.70;0.70;;;;;;;22.32;60.05;95772.41;5072147;28;20446;-58
2023/09/03 00:20:58;;;;;;;0.50;0.50;;;;;;;22.42;60.79;95806.31;5045918;28;20878;-57
2023/09/03 00:23:27;;;;;;;0.50;0.40;;;;;;;22.75;60.58;95813.34;5071971;28;20444;-57
2023/09/03 00:25:56;;;;;;;0.40;0.30;;;;;;;22.70;59.94;95773.00;5063144;28;20826;-57
2023/09/03 00:28:24;;;;;;;0.60;0.40;;;;;;;23.07;59.55;95805.50;5068018;28;20446;-57
2023/09/03 00:31:04;;;;;;;4.63;0.30;;;;;;;22.64;59.33;95752.72;5071921;28;20441;-58
2023/09/03 00:33:33;;;;;;;0.50;0.30;;;;;;;22.73;59.50;95799.38;5071397;28;20481;-57
2023/09/03 00:36:04;;;;;;;0.60;0.30;;;;;;;22.53;59.69;95792.06;5072214;28;20445;-57
2023/09/03 00:38:33;;;;;;;0.50;0.50;;;;;;;22.28;60.80;95801.22;5071830;28;20429;-57
2023/09/03 00:41:04;;;;;;;3.47;1.07;;;;;;;21.60;62.73;95799.00;5071505;28;20795;-58
2023/09/03 00:43:34;;;;;;;0.50;0.47;;;;;;;21.58;63.41;95801.25;5071648;28;20460;-58
2023/09/03 00:46:04;;;;;;;8.53;0.90;;;;;;;21.66;62.87;95793.06;5070986;28;20760;-57
2023/09/03 00:48:35;;;;;;;0.63;0.63;;;;;;;21.53;63.19;95792.22;5070751;28;20437;-58
2023/09/03 00:51:07;;;;;;;1.80;0.60;;;;;;;21.44;63.06;95771.81;5070947;28;21044;-57
2023/09/03 00:53:36;;;;;;;0.70;0.50;;;;;;;21.63;63.45;95779.47;5070944;28;20914;-58
2023/09/03 00:56:06;;;;;;;0.50;0.50;;;;;;;22.12;62.39;95784.84;5071963;28;20524;-57
2023/09/03 00:58:35;;;;;;;0.50;0.40;;;;;;;22.10;62.55;95781.69;5071585;28;20441;-58
2023/09/03 01:01:05;;;;;;;0.47;0.30;;;;;;;22.20;62.75;95763.47;5071498;28;20473;-58
2023/09/03 01:03:35;;;;;;;0.50;0.50;;;;;;;22.03;61.50;95722.03;5071854;28;20446;-58
2023/09/03 01:06:05;;;;;;;0.40;0.30;;;;;;;21.71;62.06;95714.66;5071287;28;20945;-57
2023/09/03 01:08:34;;;;;;;0.40;0.30;;;;;;;22.09;62.52;95773.91;5071241;28;20946;-57
2023/09/03 01:11:12;;;;;;;0.87;0.87;;;;;;;21.86;62.78;95776.16;5071616;28;20441;-57
2023/09/03 01:13:48;;;;;;;0.70;0.60;;;;;;;21.61;63.31;95779.78;5071067;28;20484;-57
2023/09/03 01:16:23;;;;;;;3.73;0.50;;;;;;;21.71;63.72;95774.00;5071404;28;20442;-57
2023/09/03 01:18:56;;;;;;;2.20;0.60;;;;;;;21.68;63.55;95773.88;5070829;28;20441;-57
2023/09/03 01:21:49;;;;;;;0.50;0.37;;;;;;;21.52;64.02;95779.84;5060946;28;20449;-58
2023/09/03 01:24:36;;;;;;;0.50;0.47;;;;;;;21.47;63.45;95779.25;5045490;28;20453;-57
2023/09/03 01:27:16;;;;;;;1.10;1.00;;;;;;;21.70;64.03;95779.75;5071173;28;20480;-57
2023/09/03 01:29:47;;;;;;;0.70;0.40;;;;;;;21.98;63.47;95781.63;5070452;28;20451;-57
2023/09/03 01:32:18;;;;;;;0.50;0.30;;;;;;;22.04;62.36;95787.59;5071345;28;20542;-57
2023/09/03 01:34:47;;;;;;;0.70;0.40;;;;;;;21.94;63.45;95782.59;5070545;28;20441;-57
2023/09/03 01:37:16;;;;;;;0.50;0.33;;;;;;;22.03;62.22;95776.03;5071073;28;20445;-57
2023/09/03 01:39:46;;;;;;;0.50;0.40;;;;;;;22.13;62.84;95785.63;5071057;28;20445;-57
2023/09/03 01:42:14;;;;;;;0.50;0.40;;;;;;;22.22;61.74;95778.22;5071362;28;20536;-57
2023/09/03 01:44:43;;;;;;;0.50;0.30;;;;;;;22.23;62.62;95779.81;5071171;28;20439;-57
2023/09/03 01:47:19;;;;;;;0.40;0.23;;;;;;;22.21;61.78;95792.06;5071098;28;20477;-57
2023/09/03 01:49:55;;;;;;;0.40;0.30;;;;;;;22.10;62.04;95788.97;5057279;28;20469;-57
2023/09/03 01:52:35;;;;;;;1.33;0.30;;;;;;;22.16;61.92;95789.56;5069955;28;20579;-58
2023/09/03 01:55:08;;;;;;;0.70;0.40;;;;;;;21.69;63.22;95787.03;5070611;28;20433;-57
2023/09/03 01:57:41;;;;;;;2.60;0.30;;;;;;;21.68;62.80;95787.38;5069735;28;20448;-57
2023/09/03 02:00:13;;;;;;;0.60;0.43;;;;;;;21.59;63.04;95743.47;5070326;28;20441;-57
2023/09/03 02:02:45;;;;;;;0.70;0.70;;;;;;;22.08;62.34;95788.53;5070463;28;20452;-57
2023/09/03 02:05:14;;;;;;;0.53;0.30;;;;;;;21.92;62.29;95742.44;5073001;28;20822;-57
2023/09/03 02:07:43;;;;;;;0.50;0.30;;;;;;;22.18;61.90;95803.53;5074487;28;20508;-57
2023/09/03 02:10:11;;;;;;;0.60;0.33;;;;;;;22.15;61.26;95788.78;5073919;28;20937;-57
2023/09/03 02:12:40;;;;;;;1.33;0.40;;;;;;;21.69;63.08;95783.53;5074471;28;20496;-57
2023/09/03 02:15:09;;;;;;;8.83;0.60;;;;;;;21.94;63.37;95796.88;5073190;28;20502;-57
2023/09/03 02:17:37;;;;;;;0.40;0.30;;;;;;;21.95;63.49;95801.19;5074586;28;20528;-58
2023/09/03 02:20:08;;;;;;;0.50;0.30;;;;;;;21.92;63.68;95796.44;5073836;28;20463;-57
2023/09/03 02:22:37;;;;;;;0.50;0.30;;;;;;;22.01;63.33;95799.06;5074628;28;20809;-57
2023/09/03 02:25:06;;;;;;;1.83;0.50;;;;;;;21.97;63.36;95798.13;5073965;28;20446;-57
2023/09/03 02:27:34;;;;;;;0.50;0.30;;;;;;;21.87;63.28;95793.94;5074188;28;20433;-57
2023/09/03 02:30:04;;;;;;;0.40;0.30;;;;;;;21.91;63.42;95799.44;5073785;28;20524;-57
2023/09/03 02:32:32;;;;;;;0.40;0.20;;;;;;;21.83;63.24;95792.94;5074313;28;20437;-57
2023/09/03 02:35:01;;;;;;;0.50;0.30;;;;;;;21.82;62.77;95799.50;5073759;28;20429;-58
2023/09/03 02:37:30;;;;;;;0.50;0.43;;;;;;;21.87;63.09;95798.53;5074114;28;20438;-57
2023/09/03 02:39:59;;;;;;;1.70;0.40;;;;;;;21.95;63.21;95792.28;5073983;28;20441;-57
2023/09/03 02:42:27;;;;;;;1.07;0.40;;;;;;;22.06;62.68;95801.56;5073880;28;20865;-57
2023/09/03 02:44:55;;;;;;;0.53;0.50;;;;;;;22.11;62.24;95801.38;5073742;28;20440;-58
2023/09/03 02:47:23;;;;;;;1.03;0.40;;;;;;;22.08;62.22;95810.13;5073820;28;20865;-58
2023/09/03 02:49:52;;;;;;;0.60;0.43;;;;;;;21.92;62.94;95812.63;5073313;28;20479;-58
2023/09/03 02:52:20;;;;;;;0.50;0.47;;;;;;;21.84;63.05;95801.84;5073495;28;20448;-58
2023/09/03 02:54:50;;;;;;;0.70;0.50;;;;;;;21.97;62.25;95811.63;5073126;28;20561;-58
2023/09/03 02:57:18;;;;;;;0.50;0.30;;;;;;;21.89;62.37;95812.47;5073395;28;20441;-58
2023/09/03 02:59:46;;;;;;;1.57;0.30;;;;;;;21.81;62.67;95816.00;5073536;28;20433;-58
2023/09/03 03:02:15;;;;;;;0.50;0.50;;;;;;;21.49;64.15;95817.47;5072417;28;20434;-58
2023/09/03 03:04:43;;;;;;;0.47;0.33;;;;;;;21.46;63.76;95821.59;5073083;28;20433;-58
2023/09/03 03:07:11;;;;;;;0.50;0.40;;;;;;;21.22;64.61;95815.22;5073538;28;20521;-58
2023/09/03 03:09:40;;;;;;;0.40;0.30;;;;;;;21.50;64.19;95817.13;5073636;28;20448;-58
2023/09/03 03:12:09;;;;;;;0.50;0.30;;;;;;;21.44;64.65;95815.75;5073527;28;20441;-58
2023/09/03 03:14:38;;;;;;;0.47;0.33;;;;;;;21.56;63.99;95820.44;5072957;28;20534;-58
2023/09/03 03:17:06;;;;;;;0.50;0.30;;;;;;;21.50;63.43;95798.25;5068836;28;20430;-58
2023/09/03 03:19:35;;;;;;;0.60;0.30;;;;;;;21.50;62.58;95811.75;5063908;28;20490;-58
2023/09/03 03:22:03;;;;;;;0.53;0.50;;;;;;;21.33;63.24;95808.34;5072993;28;20503;-60
2023/09/03 03:24:32;;;;;;;0.50;0.40;;;;;;;21.13;64.17;95809.06;5073096;28;20438;-60
2023/09/03 03:27:01;;;;;;;0.43;0.30;;;;;;;21.17;64.27;95818.13;5072915;28;20433;-60
2023/09/03 03:29:32;;;;;;;0.67;0.37;;;;;;;21.18;64.36;95819.69;5073042;28;20827;-61
2023/09/03 03:32:00;;;;;;;0.40;0.30;;;;;;;21.05;65.07;95820.66;5072676;28;20782;-60
2023/09/03 03:34:28;;;;;;;0.50;0.50;;;;;;;20.56;66.33;95816.69;5072175;28;20472;-60
2023/09/03 03:36:57;;;;;;;0.50;0.40;;;;;;;20.21;66.70;95762.06;5072780;28;20507;-60
2023/09/03 03:39:25;;;;;;;0.80;0.30;;;;;;;20.82;66.50;95817.41;5072614;28;20437;-60
2023/09/03 03:41:54;;;;;;;0.50;0.30;;;;;;;20.95;66.58;95824.50;5046136;28;20453;-60
2023/09/03 03:44:22;;;;;;;0.50;0.30;;;;;;;20.86;66.08;95821.03;5072731;28;20495;-59
2023/09/03 03:46:52;;;;;;;0.50;0.40;;;;;;;20.80;66.23;95823.09;5072822;28;20870;-59
2023/09/03 03:49:20;;;;;;;0.70;0.70;;;;;;;20.94;65.62;95827.50;5071654;28;20465;-59
2023/09/03 03:51:48;;;;;;;0.40;0.27;;;;;;;20.74;65.64;95829.81;5072324;28;20477;-60
2023/09/03 03:54:17;;;;;;;0.50;0.37;;;;;;;20.65;66.45;95825.53;5072537;28;20508;-60
2023/09/03 03:56:45;;;;;;;0.73;0.73;;;;;;;20.34;67.08;95769.19;5072811;28;20531;-60
2023/09/03 03:59:13;;;;;;;0.63;0.30;;;;;;;20.57;66.80;95827.13;5072460;28;20886;-60
2023/09/03 04:01:42;;;;;;;1.07;0.97;;;;;;;20.21;66.81;95770.91;5072317;28;20545;-60
2023/09/03 04:04:11;;;;;;;0.40;0.30;;;;;;;20.80;66.74;95822.31;5071657;28;20443;-60
2023/09/03 04:06:40;;;;;;;0.40;0.30;;;;;;;20.84;66.88;95824.06;5071924;28;20443;-61
2023/09/03 04:09:08;;;;;;;1.03;0.57;;;;;;;20.88;66.27;95825.00;5071937;28;20483;-61
2023/09/03 04:11:36;;;;;;;0.70;0.53;;;;;;;20.92;67.22;95830.53;5072398;28;20437;-60
2023/09/03 04:14:06;;;;;;;0.50;0.40;;;;;;;20.66;67.37;95835.19;5071987;28;20888;-60
2023/09/03 04:16:34;;;;;;;0.40;0.20;;;;;;;20.79;67.42;95836.91;5072054;28;20768;-60
2023/09/03 04:19:02;;;;;;;0.50;0.30;;;;;;;20.88;66.79;95832.28;5071910;28;20520;-60
2023/09/03 04:21:32;;;;;;;0.50;0.40;;;;;;;21.01;65.78;95834.00;5071624;28;20498;-59
2023/09/03 04:24:00;;;;;;;0.50;0.30;;;;;;;21.02;65.67;95830.19;5072243;28;20499;-60
2023/09/03 04:26:29;;;;;;;0.50;0.30;;;;;;;21.15;65.51;95821.09;5071696;28;20801;-60
2023/09/03 04:28:57;;;;;;;0.50;0.30;;;;;;;20.92;65.14;95789.31;5072321;28;20541;-61
2023/09/03 04:31:25;;;;;;;1.00;0.40;;;;;;;21.05;64.89;95823.38;5072096;28;20469;-62
2023/09/03 04:33:54;;;;;;;2.60;0.47;;;;;;;21.00;65.86;95818.91;5071607;28;20437;-61
2023/09/03 04:36:22;;;;;;;1.23;0.47;;;;;;;21.03;66.63;95820.19;5072072;28;20442;-60
2023/09/03 04:38:52;;;;;;;2.67;0.57;;;;;;;20.96;66.92;95822.59;5071401;28;20440;-61
2023/09/03 04:41:20;;;;;;;0.50;0.40;;;;;;;21.06;66.96;95817.66;5071224;28;20444;-61
2023/09/03 04:43:49;;;;;;;1.47;0.70;;;;;;;21.08;66.99;95817.34;5071107;28;20445;-60
2023/09/03 04:46:17;;;;;;;0.60;0.53;;;;;;;21.17;66.46;95821.59;5071046;28;20437;-60
2023/09/03 04:48:45;;;;;;;0.60;0.30;;;;;;;21.19;67.37;95813.19;5071060;28;20451;-59
2023/09/03 04:51:14;;;;;;;0.67;0.60;;;;;;;21.13;65.93;95799.09;5071519;28;20430;-59
2023/09/03 04:53:42;;;;;;;0.50;0.30;;;;;;;21.23;66.33;95806.81;5071664;28;20437;-60
2023/09/03 04:56:15;;;;;;;0.43;0.27;;;;;;;21.13;66.56;95800.97;5071474;28;20473;-59
2023/09/03 04:58:43;;;;;;;0.50;0.47;;;;;;;21.26;65.49;95808.06;5071294;28;20437;-60
2023/09/03 05:01:15;;;;;;;0.50;0.40;;;;;;;21.21;67.53;95809.03;5071492;28;20433;-60
2023/09/03 05:03:44;;;;;;;0.50;0.33;;;;;;;21.13;67.64;95807.19;5070281;28;20452;-59
2023/09/03 05:06:14;;;;;;;0.80;0.50;;;;;;;20.99;67.37;95805.78;5071267;28;20446;-59
2023/09/03 05:08:42;;;;;;;0.50;0.30;;;;;;;21.02;65.78;95765.50;5070761;28;20506;-58
2023/09/03 05:11:12;;;;;;;0.50;0.40;;;;;;;21.38;65.42;95798.16;5070991;28;20520;-59
2023/09/03 05:13:42;;;;;;;0.50;0.30;;;;;;;21.47;64.50;95798.94;5070503;28;20445;-58
2023/09/03 05:16:10;;;;;;;0.50;0.40;;;;;;;21.70;64.71;95801.31;5070633;28;20473;-59
2023/09/03 05:18:39;;;;;;;1.27;0.30;;;;;;;21.74;64.38;95796.84;5070098;28;20520;-59
2023/09/03 05:21:08;;;;;;;0.60;0.60;;;;;;;21.78;63.52;95785.06;5071393;28;20465;-59
2023/09/03 05:23:37;;;;;;;0.50;0.40;;;;;;;22.07;63.24;95785.03;5070611;28;20444;-59
2023/09/03 05:26:06;;;;;;;0.50;0.30;;;;;;;21.33;64.56;95698.59;5070883;28;20513;-59
2023/09/03 05:28:34;;;;;;;1.93;1.77;;;;;;;21.10;69.99;95791.63;5069736;28;20437;-60
2023/09/03 05:31:04;;;;;;;0.60;0.50;;;;;;;20.46;71.28;95728.16;5071215;28;20441;-60
2023/09/03 05:33:32;;;;;;;1.23;1.13;;;;;;;21.00;72.25;95789.28;5071201;28;20429;-60
2023/09/03 05:36:01;;;;;;;1.00;0.57;;;;;;;21.03;73.55;95791.31;5071226;28;20526;-60
2023/09/03 05:38:30;;;;;;;2.27;0.73;;;;;;;20.96;71.55;95791.03;5070828;28;20909;-60
2023/09/03 05:41:06;;;;;;;0.93;0.93;;;;;;;20.81;72.22;95794.28;5075146;28;20449;-60
2023/09/03 05:43:34;;;;;;;1.63;0.77;;;;;;;20.69;73.84;95789.56;5075259;28;20437;-60
2023/09/03 05:46:05;;;;;;;1.90;1.80;;;;;;;20.59;74.09;95781.03;5074966;28;20945;-60
2023/09/03 05:48:33;;;;;;;6.27;1.83;;;;;;;20.79;74.06;95791.91;5075042;28;21013;-60
2023/09/03 05:51:04;;;;;;;0.60;0.50;;;;;;;21.49;71.54;95796.69;5074564;28;20493;-60
2023/09/03 05:53:34;;;;;;;0.77;0.77;;;;;;;22.02;69.58;95787.94;5075386;28;20440;-60
2023/09/03 05:56:06;;;;;;;0.70;0.70;;;;;;;22.19;67.75;95773.47;5074967;28;20555;-61
2023/09/03 05:58:38;;;;;;;0.80;0.50;;;;;;;22.58;66.36;95770.25;5074971;28;20449;-59
2023/09/03 06:01:09;;;;;;;0.63;0.63;;;;;;;22.87;65.32;95787.47;5074965;28;20441;-59
2023/09/03 06:03:39;;;;;;;0.97;0.50;;;;;;;22.74;65.78;95786.66;5074820;28;21011;-59
2023/09/03 06:06:08;;;;;;;0.63;0.47;;;;;;;23.31;64.12;95795.50;5048710;28;20446;-58
2023/09/03 06:08:41;;;;;;;0.50;0.40;;;;;;;23.77;62.92;95788.84;5073045;28;20820;-57
2023/09/03 06:11:10;;;;;;;1.27;0.50;;;;;;;23.74;60.99;95789.50;5074528;28;20448;-56
2023/09/03 06:13:38;;;;;;;0.40;0.30;;;;;;;24.26;59.72;95788.72;5074394;28;20479;-56
2023/09/03 06:16:08;;;;;;;0.73;0.70;;;;;;;24.69;58.94;95785.25;5066229;28;20477;-55
2023/09/03 06:18:39;;;;;;;0.50;0.37;;;;;;;25.06;57.71;95786.63;5070542;28;20459;-56
2023/09/03 06:21:07;;;;;;;1.23;1.13;;;;;;;25.01;59.28;95782.25;5073607;28;20514;-56
2023/09/03 06:23:35;;;;;;;3.60;0.50;;;;;;;25.09;58.26;95769.66;5074442;28;20933;-56
2023/09/03 06:26:04;;;;;;;2.43;0.30;;;;;;;25.30;58.99;95772.88;5074724;28;20433;-56
2023/09/03 06:28:33;;;;;;;2.00;0.73;;;;;;;25.59;57.77;95771.63;5074734;28;20429;-56
2023/09/03 06:31:01;;;;;;;0.67;0.60;;;;;;;25.43;56.94;95776.28;5073866;28;20449;-56
2023/09/03 06:33:36;;;;;;;3.13;0.70;;;;;;;26.26;55.68;95771.16;5073685;28;20465;-56
2023/09/03 06:36:04;;;;;;;0.60;0.60;;;;;;;26.58;55.24;95768.28;5074612;28;20468;-56
2023/09/03 06:38:33;;;;;;;0.73;0.40;;;;;;;26.98;53.86;95766.72;5074571;28;20806;-55
2023/09/03 06:41:01;;;;;;;1.17;1.17;;;;;;;26.58;53.07;95763.66;5074182;28;20785;-55
2023/09/03 06:43:29;;;;;;;0.57;0.50;;;;;;;26.36;53.94;95767.88;5074243;28;20491;-55
2023/09/03 06:45:58;;;;;;;0.70;0.70;;;;;;;26.12;54.24;95767.38;5072806;28;20524;-55
2023/09/03 06:48:26;;;;;;;1.03;0.90;;;;;;;26.15;54.57;95764.75;5074406;28;20964;-56
2023/09/03 06:50:56;;;;;;;0.87;0.73;;;;;;;26.46;52.77;95763.81;5072777;28;20480;-55
2023/09/03 06:53:25;;;;;;;0.67;0.67;;;;;;;26.64;53.06;95764.91;5073633;28;20444;-55
2023/09/03 06:55:54;;;;;;;0.80;0.80;;;;;;;27.11;52.93;95767.34;5073552;28;20490;-55
2023/09/03 06:58:22;;;;;;;0.70;0.63;;;;;;;26.90;52.34;95701.66;5073840;28;20865;-54
2023/09/03 07:00:51;;;;;;;0.63;0.50;;;;;;;27.94;51.65;95757.31;5073503;28;20452;-55
2023/09/03 07:03:23;;;;;;;0.90;0.80;;;;;;;27.80;51.17;95755.19;5063140;28;20555;-55
2023/09/03 07:05:51;;;;;;;0.70;0.47;;;;;;;27.92;50.57;95759.63;5069402;28;20461;-55
2023/09/03 07:08:21;;;;;;;0.97;0.60;;;;;;;28.30;49.85;95768.34;5071554;28;20441;-55
2023/09/03 07:10:50;;;;;;;1.13;0.80;;;;;;;28.50;49.67;95762.69;5071594;28;20510;-56
2023/09/03 07:13:18;;;;;;;0.50;0.50;;;;;;;28.29;50.79;95766.75;5071820;28;20452;-55
2023/09/03 07:15:47;;;;;;;0.60;0.50;;;;;;;29.18;48.59;95759.50;5072286;28;20491;-55
2023/09/03 07:18:15;;;;;;;3.30;0.50;;;;;;;29.18;47.16;95759.50;5072357;28;20434;-55
2023/09/03 07:20:43;;;;;;;1.03;1.00;;;;;;;29.66;47.62;95758.34;5073468;28;20929;-55
2023/09/03 07:23:12;;;;;;;0.53;0.53;;;;;;;29.77;46.90;95753.72;5073489;28;20442;-55
2023/09/03 07:25:44;;;;;;;0.47;0.30;;;;;;;30.26;46.44;95755.19;5073521;28;20515;-55
2023/09/03 07:28:12;;;;;;;0.90;0.50;;;;;;;30.41;46.27;95748.63;5073095;28;20481;-55
2023/09/03 07:30:41;;;;;;;0.70;0.70;;;;;;;30.44;44.95;95748.59;5073427;28;20506;-55
2023/09/03 07:33:09;;;;;;;0.40;0.30;;;;;;;30.53;44.59;95756.47;5073170;28;20934;-55
2023/09/03 07:35:37;;;;;;;0.73;0.73;;;;;;;30.99;45.17;95748.38;5072940;28;20565;-54
2023/09/03 07:38:06;;;;;;;1.40;1.30;;;;;;;30.30;44.60;95745.03;5073267;28;20854;-55
2023/09/03 07:40:39;;;;;;;0.73;0.73;;;;;;;31.40;43.71;95742.13;5073160;28;20510;-55
2023/09/03 07:43:09;;;;;;;0.50;0.50;;;;;;;30.80;43.55;95692.78;5072801;28;20502;-54
2023/09/03 07:45:37;;;;;;;0.40;0.40;;;;;;;31.40;42.82;95733.91;5073019;28;20437;-54
2023/09/03 07:48:06;;;;;;;0.67;0.67;;;;;;;31.69;43.82;95720.97;5073275;28;20484;-55
2023/09/03 07:50:38;;;;;;;0.53;0.40;;;;;;;32.06;42.36;95727.94;5072298;28;20476;-55
2023/09/03 07:53:07;;;;;;;0.77;0.53;;;;;;;31.91;42.36;95716.19;5071952;28;20460;-54
2023/09/03 07:55:35;;;;;;;0.60;0.60;;;;;;;31.64;40.96;95728.81;5072848;28;20440;-54
2023/09/03 07:58:04;;;;;;;0.83;0.77;;;;;;;31.89;40.98;95715.81;5059789;28;20495;-54
2023/09/03 08:00:34;;;;;;;1.23;0.73;;;;;;;32.73;39.94;95708.44;5072969;28;20476;-54
2023/09/03 08:03:02;;;;;;;0.70;0.60;;;;;;;32.90;39.32;95715.75;5072513;28;20510;-54
2023/09/03 08:05:31;;;;;;;0.67;0.60;;;;;;;32.83;38.85;95702.09;5072628;28;20444;-54
2023/09/03 08:08:00;;;;;;;0.70;0.70;;;;;;;33.73;39.10;95704.47;5072445;28;20458;-54
2023/09/03 08:10:28;;;;;;;0.87;0.87;;;;;;;34.91;37.12;95697.13;5071953;28;20840;-54
2023/09/03 08:12:56;;;;;;;0.30;0.20;;;;;;;35.45;35.65;95686.78;5072804;28;20976;-54
2023/09/03 08:15:25;;;;;;;1.00;0.57;;;;;;;35.16;34.80;95694.00;5072001;28;20502;-53
2023/09/03 08:18:11;;;;;;;0.83;0.63;;;;;;;35.20;36.13;95683.69;5072228;28;20525;-53
2023/09/03 08:20:41;;;;;;;0.40;0.30;;;;;;;35.99;32.27;95682.66;5071633;28;20521;-54
2023/09/03 08:23:11;;;;;;;0.57;0.50;;;;;;;36.11;33.40;95653.66;5072384;28;20437;-53
2023/09/03 08:25:39;;;;;;;0.40;0.40;;;;;;;36.23;32.05;95628.19;5072127;28;20447;-53
2023/09/03 08:28:10;;;;;;;0.40;0.30;;;;;;;35.93;33.21;95623.63;5071297;28;20444;-53
2023/09/03 08:30:39;;;;;;;0.60;0.60;;;;;;;35.81;34.28;95675.91;5072376;28;20201;-53
2023/09/03 08:33:07;;;;;;;0.30;0.30;;;;;;;35.72;32.79;95645.38;5071673;28;20433;-53
2023/09/03 08:35:37;;;;;;;0.57;0.40;;;;;;;36.94;31.16;95668.81;5072070;28;20226;-53
2023/09/03 08:38:05;;;;;;;0.80;0.50;;;;;;;36.92;31.92;95660.13;5070999;28;20527;-54
2023/09/03 08:40:34;;;;;;;0.60;0.50;;;;;;;36.55;32.50;95666.94;5071466;28;20556;-53
2023/09/03 08:43:06;;;;;;;1.10;1.10;;;;;;;34.13;33.17;95673.41;5070980;28;20285;-53
2023/09/03 08:45:38;;;;;;;1.27;0.60;;;;;;;34.19;33.64;95668.22;5071450;28;20256;-53
2023/09/03 08:48:06;;;;;;;0.47;0.43;;;;;;;34.62;33.81;95649.94;5071000;28;20190;-53
2023/09/03 08:50:37;;;;;;;0.70;0.40;;;;;;;35.19;31.93;95654.59;5071093;28;20234;-53
2023/09/03 08:53:06;;;;;;;0.60;0.60;;;;;;;36.54;30.65;95642.50;5071259;28;20541;-53
2023/09/03 08:55:35;;;;;;;1.47;0.50;;;;;;;37.05;28.97;95652.75;5071839;28;20202;-54
2023/09/03 08:58:03;;;;;;;0.80;0.53;;;;;;;35.91;28.24;95637.09;5071044;28;20214;-52
2023/09/03 09:00:32;;;;;;;0.40;0.40;;;;;;;36.52;28.51;95631.88;5070864;28;20195;-52
2023/09/03 09:03:02;;;;;;;0.60;0.60;;;;;;;35.74;28.60;95632.72;5071202;28;20715;-52
2023/09/03 09:05:31;;;;;;;0.73;0.73;;;;;;;35.57;28.75;95620.06;5071143;28;20249;-52
2023/09/03 09:08:05;;;;;;;0.40;0.40;;;;;;;34.30;31.02;95619.34;5071409;28;20264;-53
2023/09/03 09:10:37;;;;;;;0.80;0.80;;;;;;;34.21;31.80;95616.28;5071075;28;20580;-52
2023/09/03 09:13:08;;;;;;;0.50;0.40;;;;;;;35.40;29.34;95630.16;5070960;28;20236;-53
2023/09/03 09:15:36;;;;;;;0.77;0.77;;;;;;;36.20;31.48;95618.00;5070864;28;20553;-53
2023/09/03 09:18:09;;;;;;;0.60;0.60;;;;;;;35.88;27.79;95615.88;5071302;28;20225;-53
2023/09/03 09:20:39;;;;;;;0.70;0.70;;;;;;;35.87;29.10;95611.56;5065396;28;20206;-53
2023/09/03 09:23:09;;;;;;;0.45;0.43;;;;;;;36.36;29.31;95612.50;5064318;28;20320;-53
2023/09/03 09:25:37;;;;;;;0.43;0.40;;;;;;;36.83;27.59;95599.97;5045097;28;20560;-53
2023/09/03 09:28:13;;;;;;;0.40;0.40;;;;;;;36.68;26.59;95601.53;5070788;28;20198;-53
2023/09/03 09:30:55;;;;;;;0.73;0.73;;;;;;;37.35;26.92;95597.06;5070927;28;20221;-53
2023/09/03 09:33:24;;;;;;;0.47;0.43;;;;;;;37.46;25.54;95564.41;5071095;28;20244;-53
2023/09/03 09:35:53;;;;;;;0.30;0.30;;;;;;;38.34;24.65;95597.06;5070793;28;20194;-53
2023/09/03 09:38:35;;;;;;;3.03;0.45;;;;;;;37.65;25.41;95592.34;5070691;28;20297;-54
2023/09/03 09:41:22;;;;;;;0.40;0.40;;;;;;;37.81;25.15;95589.50;5070336;28;20194;-54
2023/09/03 09:43:51;;;;;;;0.50;0.50;;;;;;;38.12;25.14;95585.06;5061560;28;20216;-54
2023/09/03 09:46:30;;;;;;;0.85;0.82;;;;;;;37.65;24.71;95586.81;5070956;28;20226;-54
2023/09/03 09:49:00;;;;;;;0.88;0.40;;;;;;;37.57;25.80;95577.94;5070707;28;20198;-54
2023/09/03 09:51:29;;;;;;;0.70;0.68;;;;;;;38.37;27.96;95567.72;5070857;28;20197;-54
2023/09/03 09:54:00;;;;;;;0.88;0.88;;;;;;;38.16;25.38;95560.81;5070476;28;20201;-55
2023/09/03 09:56:30;;;;;;;0.55;0.38;;;;;;;37.66;26.12;95563.47;5070594;28;20190;-54
2023/09/03 09:58:59;;;;;;;0.43;0.43;;;;;;;37.75;26.92;95560.84;5071078;28;20313;-56
2023/09/03 10:01:42;;;;;;;0.45;0.45;;;;;;;38.28;26.11;95554.50;5070428;28;20717;-54
2023/09/03 10:04:11;;;;;;;0.30;0.30;;;;;;;38.26;24.57;95545.84;5070651;28;20285;-54
2023/09/03 10:06:41;;;;;;;0.50;0.50;;;;;;;38.87;25.16;95539.97;5070822;28;20203;-54
2023/09/03 10:09:11;;;;;;;0.43;0.43;;;;;;;38.97;24.50;95532.50;5070824;28;20578;-54
2023/09/03 10:11:40;;;;;;;0.40;0.30;;;;;;;39.52;23.73;95534.53;5070699;28;20202;-54
2023/09/03 10:14:08;;;;;;;0.73;0.73;;;;;;;38.06;24.20;95537.00;5069848;28;20248;-54
2023/09/03 10:16:37;;;;;;;0.40;0.40;;;;;;;37.90;25.25;95528.81;5070318;28;20274;-54
2023/09/03 10:19:11;;;;;;;0.60;0.60;;;;;;;37.33;25.72;95518.53;5070291;28;20225;-54
2023/09/03 10:21:40;;;;;;;4.68;0.43;;;;;;;36.16;26.24;95524.22;5070399;28;20194;-54
2023/09/03 10:24:26;;;;;;;0.40;0.30;;;;;;;35.35;27.33;95517.63;5070840;28;20260;-53
2023/09/03 10:27:00;;;;;;;0.60;0.43;;;;;;;35.34;26.54;95520.81;5074000;28;20248;-53
2023/09/03 10:29:32;;;;;;;0.50;0.40;;;;;;;35.87;25.52;95508.72;5074604;28;20264;-53
2023/09/03 10:32:03;;;;;;;0.60;0.50;;;;;;;36.59;26.50;95514.94;5073960;28;20194;-53
2023/09/03 10:34:33;;;;;;;0.50;0.30;;;;;;;36.92;26.31;95502.63;5074073;28;20562;-53
2023/09/03 10:37:09;;;;;;;0.70;0.70;;;;;;;37.02;24.89;95504.38;5048210;28;20194;-53
2023/09/03 10:39:40;;;;;;;0.70;0.50;;;;;;;37.30;24.13;95500.03;5073759;28;20237;-53
2023/09/03 10:42:31;;;;;;;0.40;0.30;;;;;;;38.41;24.02;95436.19;5073767;28;20230;-55
2023/09/03 10:45:02;;;;;;;0.30;0.30;;;;;;;39.37;24.73;95472.47;5073379;28;20641;-53
2023/09/03 10:47:31;;;;;;;0.50;0.30;;;;;;;39.09;23.80;95479.78;5073410;28;20201;-54
2023/09/03 10:49:59;;;;;;;0.40;0.35;;;;;;;39.75;22.82;95477.81;5047086;28;20633;-54
2023/09/03 10:52:40;;;;;;;0.98;0.77;;;;;;;40.26;22.97;95464.31;5073539;28;20564;-54
2023/09/03 10:55:19;;;;;;;1.42;0.77;;;;;;;39.20;22.44;95469.13;5063129;28;20205;-55
2023/09/03 10:57:48;;;;;;;0.55;0.40;;;;;;;39.52;23.73;95476.25;5073198;28;20213;-54
2023/09/03 11:00:20;;;;;;;0.40;0.40;;;;;;;37.88;25.23;95467.56;5073868;28;20195;-54
2023/09/03 11:02:49;;;;;;;0.60;0.40;;;;;;;36.91;25.15;95467.94;5073344;28;20209;-54
2023/09/03 11:05:24;;;;;;;0.40;0.40;;;;;;;36.11;26.10;95463.22;5073518;28;20221;-55
2023/09/03 11:08:22;;;;;;;0.73;0.32;;;;;;;35.51;27.19;95456.28;5049268;28;20561;-55
2023/09/03 11:10:55;;;;;;;0.30;0.28;;;;;;;35.22;26.14;95458.84;5073041;28;20233;-55
2023/09/03 11:13:23;;;;;;;0.37;0.30;;;;;;;34.71;27.24;95457.44;5073622;28;20620;-55
2023/09/03 11:16:05;;;;;;;0.40;0.30;;;;;;;35.63;26.80;95455.63;5073357;28;20198;-55
2023/09/03 11:18:34;;;;;;;0.50;0.50;;;;;;;36.36;26.31;95407.44;5072935;28;20221;-54
2023/09/03 11:21:02;;;;;;;0.33;0.27;;;;;;;37.66;24.79;95450.03;5073102;28;20628;-54
2023/09/03 11:23:31;;;;;;;0.40;0.40;;;;;;;38.53;24.19;95440.94;5073057;28;20237;-53
2023/09/03 11:26:13;;;;;;;0.55;0.35;;;;;;;38.74;23.42;95443.00;5062262;28;20234;-54
2023/09/03 11:28:45;;;;;;;0.40;0.40;;;;;;;39.58;23.53;95438.38;5072074;28;20225;-54
2023/09/03 11:31:14;;;;;;;0.40;0.30;;;;;;;39.32;23.59;95431.44;5072532;28;20198;-54
2023/09/03 11:33:43;;;;;;;0.75;0.38;;;;;;;39.19;22.24;95411.34;5046871;28;20190;-54
2023/09/03 11:36:12;;;;;;;0.60;0.40;;;;;;;40.30;22.19;95423.28;5071868;28;20194;-55
2023/09/03 11:38:40;;;;;;;0.50;0.43;;;;;;;40.56;21.52;95422.56;5072503;28;20214;-55
2023/09/03 11:41:10;;;;;;;0.43;0.43;;;;;;;40.70;21.63;95421.22;5072413;28;20191;-55
2023/09/03 11:43:39;;;;;;;0.40;0.30;;;;;;;38.79;23.27;95418.72;5073121;28;20584;-55
2023/09/03 11:46:13;;;;;;;0.90;0.45;;;;;;;36.73;24.67;95393.03;5072340;28;20209;-54
2023/09/03 11:48:42;;;;;;;0.82;0.40;;;;;;;35.87;25.19;95421.22;5072745;28;20194;-54